sensor_id;sensor_type;location;lat;lon;timestamp;P1;durP1;ratioP1;P2;durP2;ratioP2
65230;SDS011;51813;40.666;16.602;2023-01-05T00:02:24;8.07;;;4.70;;
65230;SDS011;51813;40.666;16.602;2023-01-05T00:04:50;7.65;;;4.55;;
65230;SDS011;51813;40.666;16.602;2023-01-05T00:07:16;8.30;;;5.60;;
65230;SDS011;51813;40.666;16.602;2023-01-05T00:09:41;8.88;;;5.28;;
65230;SDS011;51813;40.666;16.602;2023-01-05T00:12:07;7.95;;;5.18;;
65230;SDS011;51813;40.666;16.602;2023-01-05T00:14:52;9.18;;;4.82;;
65230;SDS011;51813;40.666;16.602;2023-01-05T00:17:36;6.88;;;4.70;;
65230;SDS011;51813;40.666;16.602;2023-01-05T00:20:20;7.07;;;5.00;;
65230;SDS011;51813;40.666;16.602;2023-01-05T00:23:05;7.75;;;5.10;;
65230;SDS011;51813;40.666;16.602;2023-01-05T00:25:33;7.50;;;5.05;;
65230;SDS011;51813;40.666;16.602;2023-01-05T00:28:02;7.22;;;4.88;;
65230;SDS011;51813;40.666;16.602;2023-01-05T00:30:29;6.80;;;4.75;;
65230;SDS011;51813;40.666;16.602;2023-01-05T00:33:02;7.50;;;5.18;;
65230;SDS011;51813;40.666;16.602;2023-01-05T00:35:28;8.10;;;5.13;;
65230;SDS011;51813;40.666;16.602;2023-01-05T00:37:53;7.60;;;5.00;;
65230;SDS011;51813;40.666;16.602;2023-01-05T00:40:20;6.97;;;4.57;;
65230;SDS011;51813;40.666;16.602;2023-01-05T00:42:47;8.07;;;4.95;;
65230;SDS011;51813;40.666;16.602;2023-01-05T00:45:14;7.45;;;4.82;;
65230;SDS011;51813;40.666;16.602;2023-01-05T00:47:41;8.02;;;4.93;;
65230;SDS011;51813;40.666;16.602;2023-01-05T00:50:07;7.00;;;4.68;;
65230;SDS011;51813;40.666;16.602;2023-01-05T00:52:36;7.93;;;5.00;;
65230;SDS011;51813;40.666;16.602;2023-01-05T00:55:02;9.05;;;5.43;;
65230;SDS011;51813;40.666;16.602;2023-01-05T00:57:28;9.57;;;5.40;;
65230;SDS011;51813;40.666;16.602;2023-01-05T00:59:53;6.82;;;4.95;;
65230;SDS011;51813;40.666;16.602;2023-01-05T01:02:19;7.13;;;4.53;;
65230;SDS011;51813;40.666;16.602;2023-01-05T01:04:45;9.18;;;5.00;;
65230;SDS011;51813;40.666;16.602;2023-01-05T01:07:10;7.22;;;4.45;;
65230;SDS011;51813;40.666;16.602;2023-01-05T01:09:36;7.13;;;5.03;;
65230;SDS011;51813;40.666;16.602;2023-01-05T01:12:03;7.60;;;4.47;;
65230;SDS011;51813;40.666;16.602;2023-01-05T01:14:28;7.60;;;4.93;;
65230;SDS011;51813;40.666;16.602;2023-01-05T01:16:54;8.43;;;5.20;;
65230;SDS011;51813;40.666;16.602;2023-01-05T01:19:21;7.03;;;4.90;;
65230;SDS011;51813;40.666;16.602;2023-01-05T01:21:48;9.45;;;5.53;;
65230;SDS011;51813;40.666;16.602;2023-01-05T01:24:18;7.65;;;4.90;;
65230;SDS011;51813;40.666;16.602;2023-01-05T01:26:53;7.25;;;4.80;;
65230;SDS011;51813;40.666;16.602;2023-01-05T01:29:20;8.02;;;5.28;;
65230;SDS011;51813;40.666;16.602;2023-01-05T01:31:46;7.70;;;4.88;;
65230;SDS011;51813;40.666;16.602;2023-01-05T01:34:13;10.35;;;5.18;;
65230;SDS011;51813;40.666;16.602;2023-01-05T01:36:39;10.85;;;5.20;;
65230;SDS011;51813;40.666;16.602;2023-01-05T01:39:05;7.90;;;5.13;;
65230;SDS011;51813;40.666;16.602;2023-01-05T01:41:31;8.02;;;5.10;;
65230;SDS011;51813;40.666;16.602;2023-01-05T01:43:56;8.75;;;4.97;;
65230;SDS011;51813;40.666;16.602;2023-01-05T01:46:23;8.18;;;5.47;;
65230;SDS011;51813;40.666;16.602;2023-01-05T01:48:52;7.28;;;5.35;;
65230;SDS011;51813;40.666;16.602;2023-01-05T01:54:04;10.32;;;5.90;;
65230;SDS011;51813;40.666;16.602;2023-01-05T01:56:37;9.20;;;5.22;;
65230;SDS011;51813;40.666;16.602;2023-01-05T01:59:09;8.43;;;5.20;;
65230;SDS011;51813;40.666;16.602;2023-01-05T02:01:35;7.80;;;5.53;;
65230;SDS011;51813;40.666;16.602;2023-01-05T02:04:01;7.32;;;5.30;;
65230;SDS011;51813;40.666;16.602;2023-01-05T02:06:29;7.82;;;5.50;;
65230;SDS011;51813;40.666;16.602;2023-01-05T02:08:55;8.27;;;5.32;;
65230;SDS011;51813;40.666;16.602;2023-01-05T02:19:06;9.05;;;5.18;;
65230;SDS011;51813;40.666;16.602;2023-01-05T02:21:46;8.23;;;5.57;;
65230;SDS011;51813;40.666;16.602;2023-01-05T02:35:26;8.88;;;5.70;;
65230;SDS011;51813;40.666;16.602;2023-01-05T02:38:06;9.82;;;6.82;;
65230;SDS011;51813;40.666;16.602;2023-01-05T02:40:41;10.60;;;6.47;;
65230;SDS011;51813;40.666;16.602;2023-01-05T02:43:12;11.05;;;6.72;;
65230;SDS011;51813;40.666;16.602;2023-01-05T02:45:39;8.75;;;6.20;;
65230;SDS011;51813;40.666;16.602;2023-01-05T02:48:05;10.27;;;6.43;;
65230;SDS011;51813;40.666;16.602;2023-01-05T02:50:38;9.52;;;6.47;;
65230;SDS011;51813;40.666;16.602;2023-01-05T02:55:53;9.52;;;6.25;;
65230;SDS011;51813;40.666;16.602;2023-01-05T02:58:28;9.88;;;6.30;;
65230;SDS011;51813;40.666;16.602;2023-01-05T03:00:58;8.23;;;6.20;;
65230;SDS011;51813;40.666;16.602;2023-01-05T03:06:12;10.13;;;6.53;;
65230;SDS011;51813;40.666;16.602;2023-01-05T03:08:48;10.02;;;6.30;;
65230;SDS011;51813;40.666;16.602;2023-01-05T03:11:17;9.13;;;5.90;;
65230;SDS011;51813;40.666;16.602;2023-01-05T03:16:49;8.48;;;5.90;;
65230;SDS011;51813;40.666;16.602;2023-01-05T03:19:17;10.35;;;6.45;;
65230;SDS011;51813;40.666;16.602;2023-01-05T03:22:04;9.48;;;6.20;;
65230;SDS011;51813;40.666;16.602;2023-01-05T03:25:02;9.07;;;5.80;;
65230;SDS011;51813;40.666;16.602;2023-01-05T03:27:47;8.32;;;5.85;;
65230;SDS011;51813;40.666;16.602;2023-01-05T03:30:38;9.15;;;5.80;;
65230;SDS011;51813;40.666;16.602;2023-01-05T03:36:39;9.30;;;5.90;;
65230;SDS011;51813;40.666;16.602;2023-01-05T03:39:08;8.93;;;5.63;;
65230;SDS011;51813;40.666;16.602;2023-01-05T03:41:35;9.85;;;6.07;;
65230;SDS011;51813;40.666;16.602;2023-01-05T03:44:03;9.38;;;5.82;;
65230;SDS011;51813;40.666;16.602;2023-01-05T03:46:30;9.20;;;5.85;;
65230;SDS011;51813;40.666;16.602;2023-01-05T03:48:56;8.35;;;5.90;;
65230;SDS011;51813;40.666;16.602;2023-01-05T03:51:22;10.32;;;6.10;;
65230;SDS011;51813;40.666;16.602;2023-01-05T03:53:47;8.38;;;5.60;;
65230;SDS011;51813;40.666;16.602;2023-01-05T03:56:13;8.13;;;5.80;;
65230;SDS011;51813;40.666;16.602;2023-01-05T03:58:39;9.20;;;6.45;;
65230;SDS011;51813;40.666;16.602;2023-01-05T04:01:05;8.35;;;5.88;;
65230;SDS011;51813;40.666;16.602;2023-01-05T04:03:30;7.55;;;5.65;;
65230;SDS011;51813;40.666;16.602;2023-01-05T04:05:56;9.25;;;5.75;;
65230;SDS011;51813;40.666;16.602;2023-01-05T04:08:22;8.02;;;5.38;;
65230;SDS011;51813;40.666;16.602;2023-01-05T04:10:50;8.52;;;5.70;;
65230;SDS011;51813;40.666;16.602;2023-01-05T04:13:17;9.73;;;6.10;;
65230;SDS011;51813;40.666;16.602;2023-01-05T04:15:43;8.50;;;5.63;;
65230;SDS011;51813;40.666;16.602;2023-01-05T04:18:09;8.15;;;5.70;;
65230;SDS011;51813;40.666;16.602;2023-01-05T04:20:34;7.95;;;5.53;;
65230;SDS011;51813;40.666;16.602;2023-01-05T04:23:00;8.93;;;5.38;;
65230;SDS011;51813;40.666;16.602;2023-01-05T04:25:26;8.77;;;5.55;;
65230;SDS011;51813;40.666;16.602;2023-01-05T04:27:51;9.65;;;5.25;;
65230;SDS011;51813;40.666;16.602;2023-01-05T04:30:17;7.97;;;5.20;;
65230;SDS011;51813;40.666;16.602;2023-01-05T04:32:43;7.72;;;5.28;;
65230;SDS011;51813;40.666;16.602;2023-01-05T04:35:09;7.63;;;5.32;;
65230;SDS011;51813;40.666;16.602;2023-01-05T04:37:34;8.13;;;5.70;;
65230;SDS011;51813;40.666;16.602;2023-01-05T04:40:00;9.32;;;5.30;;
65230;SDS011;51813;40.666;16.602;2023-01-05T04:42:26;7.57;;;5.38;;
65230;SDS011;51813;40.666;16.602;2023-01-05T04:44:51;8.45;;;4.65;;
65230;SDS011;51813;40.666;16.602;2023-01-05T04:47:17;7.80;;;4.88;;
65230;SDS011;51813;40.666;16.602;2023-01-05T04:49:42;8.73;;;5.75;;
65230;SDS011;51813;40.666;16.602;2023-01-05T04:52:08;8.52;;;5.10;;
65230;SDS011;51813;40.666;16.602;2023-01-05T04:54:34;8.90;;;5.40;;
65230;SDS011;51813;40.666;16.602;2023-01-05T04:56:59;9.10;;;5.55;;
65230;SDS011;51813;40.666;16.602;2023-01-05T04:59:27;7.20;;;4.78;;
65230;SDS011;51813;40.666;16.602;2023-01-05T05:01:53;7.57;;;5.13;;
65230;SDS011;51813;40.666;16.602;2023-01-05T05:04:18;7.57;;;5.13;;
65230;SDS011;51813;40.666;16.602;2023-01-05T05:06:44;8.02;;;5.18;;
65230;SDS011;51813;40.666;16.602;2023-01-05T05:09:10;7.18;;;5.20;;
65230;SDS011;51813;40.666;16.602;2023-01-05T05:11:35;9.25;;;5.38;;
65230;SDS011;51813;40.666;16.602;2023-01-05T05:14:01;8.38;;;5.13;;
65230;SDS011;51813;40.666;16.602;2023-01-05T05:16:27;7.53;;;4.60;;
65230;SDS011;51813;40.666;16.602;2023-01-05T05:18:52;9.38;;;5.30;;
65230;SDS011;51813;40.666;16.602;2023-01-05T05:21:18;9.10;;;5.20;;
65230;SDS011;51813;40.666;16.602;2023-01-05T05:23:44;7.90;;;5.00;;
65230;SDS011;51813;40.666;16.602;2023-01-05T05:26:09;7.55;;;5.13;;
65230;SDS011;51813;40.666;16.602;2023-01-05T05:28:35;8.10;;;4.60;;
65230;SDS011;51813;40.666;16.602;2023-01-05T05:31:01;8.65;;;4.97;;
65230;SDS011;51813;40.666;16.602;2023-01-05T05:33:27;8.55;;;5.40;;
65230;SDS011;51813;40.666;16.602;2023-01-05T05:35:52;7.40;;;4.80;;
65230;SDS011;51813;40.666;16.602;2023-01-05T05:38:18;7.80;;;4.78;;
65230;SDS011;51813;40.666;16.602;2023-01-05T05:40:44;8.63;;;5.25;;
65230;SDS011;51813;40.666;16.602;2023-01-05T05:43:11;6.57;;;4.78;;
65230;SDS011;51813;40.666;16.602;2023-01-05T05:45:37;6.65;;;4.80;;
65230;SDS011;51813;40.666;16.602;2023-01-05T05:48:03;7.22;;;4.88;;
65230;SDS011;51813;40.666;16.602;2023-01-05T05:50:30;6.63;;;4.57;;
65230;SDS011;51813;40.666;16.602;2023-01-05T05:52:55;7.75;;;5.15;;
65230;SDS011;51813;40.666;16.602;2023-01-05T05:55:21;7.53;;;5.05;;
65230;SDS011;51813;40.666;16.602;2023-01-05T05:57:47;7.35;;;4.82;;
65230;SDS011;51813;40.666;16.602;2023-01-05T06:00:12;7.13;;;4.93;;
65230;SDS011;51813;40.666;16.602;2023-01-05T06:02:38;9.48;;;5.18;;
65230;SDS011;51813;40.666;16.602;2023-01-05T06:05:04;6.75;;;4.88;;
65230;SDS011;51813;40.666;16.602;2023-01-05T06:07:31;6.88;;;4.57;;
65230;SDS011;51813;40.666;16.602;2023-01-05T06:09:56;8.38;;;4.65;;
65230;SDS011;51813;40.666;16.602;2023-01-05T06:12:22;8.15;;;5.07;;
65230;SDS011;51813;40.666;16.602;2023-01-05T06:14:48;6.53;;;4.95;;
65230;SDS011;51813;40.666;16.602;2023-01-05T06:17:13;7.40;;;5.15;;
65230;SDS011;51813;40.666;16.602;2023-01-05T06:19:39;7.13;;;4.82;;
65230;SDS011;51813;40.666;16.602;2023-01-05T06:22:05;7.38;;;4.80;;
65230;SDS011;51813;40.666;16.602;2023-01-05T06:24:30;8.25;;;5.10;;
65230;SDS011;51813;40.666;16.602;2023-01-05T06:26:56;8.00;;;5.00;;
65230;SDS011;51813;40.666;16.602;2023-01-05T06:29:22;9.57;;;5.65;;
65230;SDS011;51813;40.666;16.602;2023-01-05T06:31:47;9.20;;;5.38;;
65230;SDS011;51813;40.666;16.602;2023-01-05T06:34:13;7.28;;;5.03;;
65230;SDS011;51813;40.666;16.602;2023-01-05T06:36:39;7.65;;;5.13;;
65230;SDS011;51813;40.666;16.602;2023-01-05T06:39:04;9.13;;;5.45;;
65230;SDS011;51813;40.666;16.602;2023-01-05T06:41:30;7.60;;;5.20;;
65230;SDS011;51813;40.666;16.602;2023-01-05T06:43:56;7.43;;;5.32;;
65230;SDS011;51813;40.666;16.602;2023-01-05T06:46:21;7.80;;;5.03;;
65230;SDS011;51813;40.666;16.602;2023-01-05T06:48:47;7.38;;;4.68;;
65230;SDS011;51813;40.666;16.602;2023-01-05T06:51:15;6.93;;;4.70;;
65230;SDS011;51813;40.666;16.602;2023-01-05T06:53:40;7.22;;;4.80;;
65230;SDS011;51813;40.666;16.602;2023-01-05T06:56:06;9.23;;;5.35;;
65230;SDS011;51813;40.666;16.602;2023-01-05T06:58:32;8.60;;;5.43;;
65230;SDS011;51813;40.666;16.602;2023-01-05T07:00:57;8.98;;;5.60;;
65230;SDS011;51813;40.666;16.602;2023-01-05T07:03:23;9.32;;;5.22;;
65230;SDS011;51813;40.666;16.602;2023-01-05T07:05:50;6.28;;;4.70;;
65230;SDS011;51813;40.666;16.602;2023-01-05T07:08:16;8.32;;;5.32;;
65230;SDS011;51813;40.666;16.602;2023-01-05T07:10:42;7.15;;;4.95;;
65230;SDS011;51813;40.666;16.602;2023-01-05T07:13:07;8.15;;;5.13;;
65230;SDS011;51813;40.666;16.602;2023-01-05T07:15:33;8.18;;;5.40;;
65230;SDS011;51813;40.666;16.602;2023-01-05T07:17:59;9.55;;;5.78;;
65230;SDS011;51813;40.666;16.602;2023-01-05T07:20:24;8.15;;;4.82;;
65230;SDS011;51813;40.666;16.602;2023-01-05T07:22:50;6.88;;;4.97;;
65230;SDS011;51813;40.666;16.602;2023-01-05T07:25:16;8.75;;;5.20;;
65230;SDS011;51813;40.666;16.602;2023-01-05T07:27:41;7.95;;;5.30;;
65230;SDS011;51813;40.666;16.602;2023-01-05T07:30:07;7.88;;;5.10;;
65230;SDS011;51813;40.666;16.602;2023-01-05T07:32:33;6.65;;;4.57;;
65230;SDS011;51813;40.666;16.602;2023-01-05T07:34:59;7.18;;;4.88;;
65230;SDS011;51813;40.666;16.602;2023-01-05T07:37:25;7.82;;;5.25;;
65230;SDS011;51813;40.666;16.602;2023-01-05T07:39:51;8.90;;;5.22;;
65230;SDS011;51813;40.666;16.602;2023-01-05T07:42:17;8.95;;;5.00;;
65230;SDS011;51813;40.666;16.602;2023-01-05T07:44:43;7.30;;;5.25;;
65230;SDS011;51813;40.666;16.602;2023-01-05T07:47:09;9.50;;;5.80;;
65230;SDS011;51813;40.666;16.602;2023-01-05T07:49:35;7.43;;;4.80;;
65230;SDS011;51813;40.666;16.602;2023-01-05T07:52:00;11.20;;;6.63;;
65230;SDS011;51813;40.666;16.602;2023-01-05T07:54:26;8.98;;;5.88;;
65230;SDS011;51813;40.666;16.602;2023-01-05T07:56:52;10.93;;;6.90;;
65230;SDS011;51813;40.666;16.602;2023-01-05T07:59:17;10.60;;;7.30;;
65230;SDS011;51813;40.666;16.602;2023-01-05T08:01:43;8.75;;;6.03;;
65230;SDS011;51813;40.666;16.602;2023-01-05T08:04:09;8.13;;;6.28;;
65230;SDS011;51813;40.666;16.602;2023-01-05T08:06:35;9.00;;;6.15;;
65230;SDS011;51813;40.666;16.602;2023-01-05T08:09:01;11.15;;;6.90;;
65230;SDS011;51813;40.666;16.602;2023-01-05T08:11:46;10.00;;;6.40;;
65230;SDS011;51813;40.666;16.602;2023-01-05T08:14:12;9.20;;;6.32;;
65230;SDS011;51813;40.666;16.602;2023-01-05T08:16:38;9.23;;;6.18;;
65230;SDS011;51813;40.666;16.602;2023-01-05T08:19:03;10.65;;;6.65;;
65230;SDS011;51813;40.666;16.602;2023-01-05T08:21:29;9.35;;;6.45;;
65230;SDS011;51813;40.666;16.602;2023-01-05T08:23:54;12.35;;;6.60;;
65230;SDS011;51813;40.666;16.602;2023-01-05T08:26:23;9.93;;;6.30;;
65230;SDS011;51813;40.666;16.602;2023-01-05T08:28:49;11.18;;;8.13;;
65230;SDS011;51813;40.666;16.602;2023-01-05T08:31:23;10.02;;;6.50;;
65230;SDS011;51813;40.666;16.602;2023-01-05T08:33:50;8.95;;;6.40;;
65230;SDS011;51813;40.666;16.602;2023-01-05T08:36:19;11.43;;;6.93;;
65230;SDS011;51813;40.666;16.602;2023-01-05T08:38:46;9.20;;;6.18;;
65230;SDS011;51813;40.666;16.602;2023-01-05T08:41:23;9.23;;;5.90;;
65230;SDS011;51813;40.666;16.602;2023-01-05T08:43:53;8.85;;;6.82;;
65230;SDS011;51813;40.666;16.602;2023-01-05T08:46:21;9.60;;;5.60;;
65230;SDS011;51813;40.666;16.602;2023-01-05T08:48:52;8.18;;;5.45;;
65230;SDS011;51813;40.666;16.602;2023-01-05T08:51:19;11.40;;;5.88;;
65230;SDS011;51813;40.666;16.602;2023-01-05T08:53:45;8.23;;;5.25;;
65230;SDS011;51813;40.666;16.602;2023-01-05T08:56:12;8.02;;;5.30;;
65230;SDS011;51813;40.666;16.602;2023-01-05T08:58:38;8.10;;;5.00;;
65230;SDS011;51813;40.666;16.602;2023-01-05T09:01:08;6.97;;;4.80;;
65230;SDS011;51813;40.666;16.602;2023-01-05T09:03:34;7.15;;;5.15;;
65230;SDS011;51813;40.666;16.602;2023-01-05T09:06:01;7.05;;;4.68;;
65230;SDS011;51813;40.666;16.602;2023-01-05T09:08:29;8.88;;;5.43;;
65230;SDS011;51813;40.666;16.602;2023-01-05T09:10:55;6.80;;;4.50;;
65230;SDS011;51813;40.666;16.602;2023-01-05T09:13:54;8.05;;;4.60;;
65230;SDS011;51813;40.666;16.602;2023-01-05T09:16:21;8.25;;;4.55;;
65230;SDS011;51813;40.666;16.602;2023-01-05T09:18:49;7.70;;;4.82;;
65230;SDS011;51813;40.666;16.602;2023-01-05T09:21:15;7.85;;;5.05;;
65230;SDS011;51813;40.666;16.602;2023-01-05T09:23:40;9.18;;;5.35;;
65230;SDS011;51813;40.666;16.602;2023-01-05T09:26:07;8.75;;;4.93;;
65230;SDS011;51813;40.666;16.602;2023-01-05T09:28:35;8.68;;;5.22;;
65230;SDS011;51813;40.666;16.602;2023-01-05T09:31:06;11.35;;;6.22;;
65230;SDS011;51813;40.666;16.602;2023-01-05T09:33:36;10.82;;;5.13;;
65230;SDS011;51813;40.666;16.602;2023-01-05T09:36:02;7.68;;;4.70;;
65230;SDS011;51813;40.666;16.602;2023-01-05T09:38:28;9.15;;;5.55;;
65230;SDS011;51813;40.666;16.602;2023-01-05T09:40:54;6.95;;;4.47;;
65230;SDS011;51813;40.666;16.602;2023-01-05T09:43:24;6.78;;;4.78;;
65230;SDS011;51813;40.666;16.602;2023-01-05T09:45:54;7.95;;;4.72;;
65230;SDS011;51813;40.666;16.602;2023-01-05T09:48:21;9.23;;;4.80;;
65230;SDS011;51813;40.666;16.602;2023-01-05T09:50:49;8.98;;;4.95;;
65230;SDS011;51813;40.666;16.602;2023-01-05T09:53:16;7.53;;;4.32;;
65230;SDS011;51813;40.666;16.602;2023-01-05T09:55:49;7.25;;;4.03;;
65230;SDS011;51813;40.666;16.602;2023-01-05T09:58:23;7.40;;;4.03;;
65230;SDS011;51813;40.666;16.602;2023-01-05T10:03:31;6.15;;;4.10;;
65230;SDS011;51813;40.666;16.602;2023-01-05T10:06:10;7.18;;;3.80;;
65230;SDS011;51813;40.666;16.602;2023-01-05T10:08:58;6.40;;;3.65;;
65230;SDS011;51813;40.666;16.602;2023-01-05T10:11:46;5.68;;;3.65;;
65230;SDS011;51813;40.666;16.602;2023-01-05T10:14:41;4.55;;;3.40;;
65230;SDS011;51813;40.666;16.602;2023-01-05T10:17:18;5.13;;;3.38;;
65230;SDS011;51813;40.666;16.602;2023-01-05T10:19:45;5.57;;;3.53;;
65230;SDS011;51813;40.666;16.602;2023-01-05T10:30:43;6.38;;;3.38;;
65230;SDS011;51813;40.666;16.602;2023-01-05T10:33:26;4.20;;;3.10;;
65230;SDS011;51813;40.666;16.602;2023-01-05T10:36:34;4.85;;;3.10;;
65230;SDS011;51813;40.666;16.602;2023-01-05T10:45:17;4.93;;;2.95;;
65230;SDS011;51813;40.666;16.602;2023-01-05T10:47:45;5.18;;;3.50;;
65230;SDS011;51813;40.666;16.602;2023-01-05T10:53:21;4.80;;;3.05;;
65230;SDS011;51813;40.666;16.602;2023-01-05T11:00:51;5.00;;;2.63;;
65230;SDS011;51813;40.666;16.602;2023-01-05T11:03:21;4.13;;;2.78;;
65230;SDS011;51813;40.666;16.602;2023-01-05T11:05:52;4.20;;;2.47;;
65230;SDS011;51813;40.666;16.602;2023-01-05T11:08:21;4.70;;;2.80;;
65230;SDS011;51813;40.666;16.602;2023-01-05T11:10:53;5.10;;;2.75;;
65230;SDS011;51813;40.666;16.602;2023-01-05T11:16:12;5.28;;;2.80;;
65230;SDS011;51813;40.666;16.602;2023-01-05T11:24:03;4.38;;;2.45;;
65230;SDS011;51813;40.666;16.602;2023-01-05T11:26:49;3.63;;;2.22;;
65230;SDS011;51813;40.666;16.602;2023-01-05T11:29:16;5.35;;;2.50;;
65230;SDS011;51813;40.666;16.602;2023-01-05T11:31:47;4.47;;;3.17;;
65230;SDS011;51813;40.666;16.602;2023-01-05T11:34:47;3.60;;;2.40;;
65230;SDS011;51813;40.666;16.602;2023-01-05T11:39:49;3.90;;;2.17;;
65230;SDS011;51813;40.666;16.602;2023-01-05T11:47:45;4.25;;;2.30;;
65230;SDS011;51813;40.666;16.602;2023-01-05T11:50:21;3.40;;;2.10;;
65230;SDS011;51813;40.666;16.602;2023-01-05T11:52:53;5.40;;;2.30;;
65230;SDS011;51813;40.666;16.602;2023-01-05T11:57:55;3.72;;;2.20;;
65230;SDS011;51813;40.666;16.602;2023-01-05T12:00:52;5.13;;;2.33;;
65230;SDS011;51813;40.666;16.602;2023-01-05T12:20:05;3.60;;;2.13;;
65230;SDS011;51813;40.666;16.602;2023-01-05T12:22:41;4.18;;;2.28;;
65230;SDS011;51813;40.666;16.602;2023-01-05T12:25:27;4.28;;;2.20;;
65230;SDS011;51813;40.666;16.602;2023-01-05T12:42:26;3.75;;;2.40;;
65230;SDS011;51813;40.666;16.602;2023-01-05T12:45:20;2.97;;;2.08;;
65230;SDS011;51813;40.666;16.602;2023-01-05T12:48:00;4.80;;;2.50;;
65230;SDS011;51813;40.666;16.602;2023-01-05T12:53:20;4.32;;;2.40;;
65230;SDS011;51813;40.666;16.602;2023-01-05T12:56:22;3.92;;;2.30;;
65230;SDS011;51813;40.666;16.602;2023-01-05T13:01:22;3.95;;;2.13;;
65230;SDS011;51813;40.666;16.602;2023-01-05T13:03:56;3.33;;;2.10;;
65230;SDS011;51813;40.666;16.602;2023-01-05T13:06:34;3.55;;;2.25;;
65230;SDS011;51813;40.666;16.602;2023-01-05T13:09:11;3.10;;;2.17;;
65230;SDS011;51813;40.666;16.602;2023-01-05T13:11:44;4.60;;;2.47;;
65230;SDS011;51813;40.666;16.602;2023-01-05T13:14:23;3.40;;;2.10;;
65230;SDS011;51813;40.666;16.602;2023-01-05T13:16:53;3.25;;;2.25;;
65230;SDS011;51813;40.666;16.602;2023-01-05T13:22:32;3.83;;;2.42;;
65230;SDS011;51813;40.666;16.602;2023-01-05T13:25:02;3.55;;;2.30;;
65230;SDS011;51813;40.666;16.602;2023-01-05T13:27:36;3.63;;;2.40;;
65230;SDS011;51813;40.666;16.602;2023-01-05T13:30:02;4.13;;;2.60;;
65230;SDS011;51813;40.666;16.602;2023-01-05T13:35:19;4.25;;;2.30;;
65230;SDS011;51813;40.666;16.602;2023-01-05T13:38:23;3.33;;;2.40;;
65230;SDS011;51813;40.666;16.602;2023-01-05T13:47:02;3.92;;;2.50;;
65230;SDS011;51813;40.666;16.602;2023-01-05T13:55:27;3.40;;;2.30;;
65230;SDS011;51813;40.666;16.602;2023-01-05T13:57:55;3.42;;;2.30;;
65230;SDS011;51813;40.666;16.602;2023-01-05T14:03:33;3.47;;;2.33;;
65230;SDS011;51813;40.666;16.602;2023-01-05T14:05:57;3.70;;;2.50;;
65230;SDS011;51813;40.666;16.602;2023-01-05T14:08:30;3.58;;;2.35;;
65230;SDS011;51813;40.666;16.602;2023-01-05T14:11:20;3.65;;;2.55;;
65230;SDS011;51813;40.666;16.602;2023-01-05T14:27:10;3.80;;;2.60;;
65230;SDS011;51813;40.666;16.602;2023-01-05T14:34:54;3.65;;;2.33;;
65230;SDS011;51813;40.666;16.602;2023-01-05T14:37:30;4.35;;;2.45;;
65230;SDS011;51813;40.666;16.602;2023-01-05T14:42:52;3.30;;;2.45;;
65230;SDS011;51813;40.666;16.602;2023-01-05T14:45:31;4.53;;;2.90;;
65230;SDS011;51813;40.666;16.602;2023-01-05T14:48:01;3.20;;;2.50;;
65230;SDS011;51813;40.666;16.602;2023-01-05T14:55:37;4.10;;;2.35;;
65230;SDS011;51813;40.666;16.602;2023-01-05T14:58:14;4.72;;;2.50;;
65230;SDS011;51813;40.666;16.602;2023-01-05T15:01:00;4.18;;;2.50;;
65230;SDS011;51813;40.666;16.602;2023-01-05T15:03:46;3.30;;;2.50;;
65230;SDS011;51813;40.666;16.602;2023-01-05T15:06:45;3.85;;;2.40;;
65230;SDS011;51813;40.666;16.602;2023-01-05T15:09:37;3.78;;;2.45;;
65230;SDS011;51813;40.666;16.602;2023-01-05T15:12:25;3.78;;;2.63;;
65230;SDS011;51813;40.666;16.602;2023-01-05T15:28:59;3.47;;;2.60;;
65230;SDS011;51813;40.666;16.602;2023-01-05T15:31:51;6.20;;;2.78;;
65230;SDS011;51813;40.666;16.602;2023-01-05T15:34:37;4.10;;;2.83;;
65230;SDS011;51813;40.666;16.602;2023-01-05T15:39:48;5.30;;;2.80;;
65230;SDS011;51813;40.666;16.602;2023-01-05T15:42:19;3.72;;;2.63;;
65230;SDS011;51813;40.666;16.602;2023-01-05T15:44:57;3.95;;;2.78;;
65230;SDS011;51813;40.666;16.602;2023-01-05T15:47:24;4.28;;;2.88;;
65230;SDS011;51813;40.666;16.602;2023-01-05T15:49:55;4.32;;;2.78;;
65230;SDS011;51813;40.666;16.602;2023-01-05T15:52:33;5.90;;;2.97;;
65230;SDS011;51813;40.666;16.602;2023-01-05T15:55:14;6.65;;;3.08;;
65230;SDS011;51813;40.666;16.602;2023-01-05T15:57:41;5.13;;;3.07;;
65230;SDS011;51813;40.666;16.602;2023-01-05T16:02:49;4.35;;;3.20;;
65230;SDS011;51813;40.666;16.602;2023-01-05T16:05:17;5.22;;;2.88;;
65230;SDS011;51813;40.666;16.602;2023-01-05T16:10:20;4.88;;;3.20;;
65230;SDS011;51813;40.666;16.602;2023-01-05T16:12:49;4.45;;;3.20;;
65230;SDS011;51813;40.666;16.602;2023-01-05T16:17:46;7.55;;;3.40;;
65230;SDS011;51813;40.666;16.602;2023-01-05T16:20:23;5.60;;;3.25;;
65230;SDS011;51813;40.666;16.602;2023-01-05T16:25:38;4.80;;;2.90;;
65230;SDS011;51813;40.666;16.602;2023-01-05T16:28:25;5.55;;;3.20;;
65230;SDS011;51813;40.666;16.602;2023-01-05T16:30:51;5.10;;;3.20;;
65230;SDS011;51813;40.666;16.602;2023-01-05T16:33:25;6.05;;;3.80;;
65230;SDS011;51813;40.666;16.602;2023-01-05T16:35:57;5.53;;;3.13;;
65230;SDS011;51813;40.666;16.602;2023-01-05T16:38:33;5.10;;;3.38;;
65230;SDS011;51813;40.666;16.602;2023-01-05T16:41:12;5.90;;;3.50;;
65230;SDS011;51813;40.666;16.602;2023-01-05T16:43:48;5.63;;;3.40;;
65230;SDS011;51813;40.666;16.602;2023-01-05T16:46:23;5.60;;;3.60;;
65230;SDS011;51813;40.666;16.602;2023-01-05T16:48:54;5.88;;;3.28;;
65230;SDS011;51813;40.666;16.602;2023-01-05T16:53:56;4.90;;;3.40;;
65230;SDS011;51813;40.666;16.602;2023-01-05T17:04:56;6.22;;;4.28;;
65230;SDS011;51813;40.666;16.602;2023-01-05T17:07:22;10.82;;;5.88;;
65230;SDS011;51813;40.666;16.602;2023-01-05T17:09:47;7.15;;;4.90;;
65230;SDS011;51813;40.666;16.602;2023-01-05T17:12:14;8.75;;;5.05;;
65230;SDS011;51813;40.666;16.602;2023-01-05T17:14:40;7.35;;;4.93;;
65230;SDS011;51813;40.666;16.602;2023-01-05T17:17:08;10.57;;;5.47;;
65230;SDS011;51813;40.666;16.602;2023-01-05T17:19:36;7.75;;;5.38;;
65230;SDS011;51813;40.666;16.602;2023-01-05T17:22:02;8.60;;;5.20;;
65230;SDS011;51813;40.666;16.602;2023-01-05T17:24:31;9.27;;;5.53;;
65230;SDS011;51813;40.666;16.602;2023-01-05T17:26:58;8.27;;;5.65;;
65230;SDS011;51813;40.666;16.602;2023-01-05T17:29:25;9.23;;;5.93;;
65230;SDS011;51813;40.666;16.602;2023-01-05T17:31:52;10.18;;;6.00;;
65230;SDS011;51813;40.666;16.602;2023-01-05T17:34:18;9.25;;;6.20;;
65230;SDS011;51813;40.666;16.602;2023-01-05T17:36:45;8.88;;;5.70;;
65230;SDS011;51813;40.666;16.602;2023-01-05T17:39:16;10.07;;;5.93;;
65230;SDS011;51813;40.666;16.602;2023-01-05T17:41:42;9.13;;;6.38;;
65230;SDS011;51813;40.666;16.602;2023-01-05T17:44:08;8.90;;;6.18;;
65230;SDS011;51813;40.666;16.602;2023-01-05T17:46:36;11.27;;;6.30;;
65230;SDS011;51813;40.666;16.602;2023-01-05T17:49:05;8.35;;;5.97;;
65230;SDS011;51813;40.666;16.602;2023-01-05T17:51:41;10.10;;;6.20;;
65230;SDS011;51813;40.666;16.602;2023-01-05T17:54:06;9.90;;;6.05;;
65230;SDS011;51813;40.666;16.602;2023-01-05T17:56:32;10.98;;;6.97;;
65230;SDS011;51813;40.666;16.602;2023-01-05T17:58:58;12.15;;;7.90;;
65230;SDS011;51813;40.666;16.602;2023-01-05T18:01:24;10.40;;;7.22;;
65230;SDS011;51813;40.666;16.602;2023-01-05T18:03:49;10.63;;;7.70;;
65230;SDS011;51813;40.666;16.602;2023-01-05T18:06:15;10.95;;;7.20;;
65230;SDS011;51813;40.666;16.602;2023-01-05T18:08:41;13.20;;;7.43;;
65230;SDS011;51813;40.666;16.602;2023-01-05T18:11:06;11.57;;;7.22;;